Seymour, Tennessee
Current Conditions -  °F | °C
As of 1:53 PM on Tuesday 27 Jan 2015 (Local Time) from KTYS Reporting Station
Light Snow Light Snow  
Wind Chill: 28°   Ceiling: 2000
Heat Index: 34°   Visibility: 10mi
Dew Point: 28°   Wind: 7mph
Humidity: 79%   Direction: 320°NW
Pressure: 30.01"   Gusts: NA
Location:  35.88°N, 83.79°W
Report Text: KTYS 271853Z 32006KT 10SM -SN FEW014 OVC020 01/M02 A3001 RMK AO2 SNB53 SLP167 P0000 T00111022
Loading
Personal Weather Stations






























Interactive Weather Map New forecast layout! Learn more

10-Day Weather Forecast

Advertisements
Track Severe Weather on mobile